sensor_id;sensor_type;location;lat;lon;timestamp;P1;durP1;ratioP1;P2;durP2;ratioP2
9330;SDS011;4704;50.470;12.072;2023-01-29T00:01:55;19.95;;;17.90;;
9330;SDS011;4704;50.470;12.072;2023-01-29T00:04:23;19.38;;;17.48;;
9330;SDS011;4704;50.470;12.072;2023-01-29T00:06:52;19.63;;;17.63;;
9330;SDS011;4704;50.470;12.072;2023-01-29T00:09:20;18.13;;;15.65;;
9330;SDS011;4704;50.470;12.072;2023-01-29T00:11:47;18.10;;;16.25;;
9330;SDS011;4704;50.470;12.072;2023-01-29T00:14:15;17.92;;;16.10;;
9330;SDS011;4704;50.470;12.072;2023-01-29T00:16:43;17.05;;;15.25;;
9330;SDS011;4704;50.470;12.072;2023-01-29T00:19:11;17.50;;;15.70;;
9330;SDS011;4704;50.470;12.072;2023-01-29T00:21:39;16.05;;;14.45;;
9330;SDS011;4704;50.470;12.072;2023-01-29T00:24:08;16.05;;;14.45;;
9330;SDS011;4704;50.470;12.072;2023-01-29T00:26:36;16.05;;;14.45;;
9330;SDS011;4704;50.470;12.072;2023-01-29T00:29:04;15.27;;;13.68;;
9330;SDS011;4704;50.470;12.072;2023-01-29T00:31:32;14.73;;;13.23;;
9330;SDS011;4704;50.470;12.072;2023-01-29T00:34:00;14.30;;;12.85;;
9330;SDS011;4704;50.470;12.072;2023-01-29T00:36:28;15.15;;;13.60;;
9330;SDS011;4704;50.470;12.072;2023-01-29T00:38:55;13.93;;;12.52;;
9330;SDS011;4704;50.470;12.072;2023-01-29T00:41:26;13.73;;;12.32;;
9330;SDS011;4704;50.470;12.072;2023-01-29T00:44:12;13.27;;;11.90;;
9330;SDS011;4704;50.470;12.072;2023-01-29T00:46:57;12.82;;;11.52;;
9330;SDS011;4704;50.470;12.072;2023-01-29T00:49:25;13.50;;;12.20;;
9330;SDS011;4704;50.470;12.072;2023-01-29T00:51:54;12.73;;;11.40;;
9330;SDS011;4704;50.470;12.072;2023-01-29T00:54:39;12.65;;;11.35;;
9330;SDS011;4704;50.470;12.072;2023-01-29T00:57:08;12.20;;;10.95;;
9330;SDS011;4704;50.470;12.072;2023-01-29T00:59:37;11.20;;;10.10;;
9330;SDS011;4704;50.470;12.072;2023-01-29T01:02:04;10.77;;;9.77;;
9330;SDS011;4704;50.470;12.072;2023-01-29T01:04:49;11.35;;;10.15;;
9330;SDS011;4704;50.470;12.072;2023-01-29T01:07:17;12.15;;;10.85;;
9330;SDS011;4704;50.470;12.072;2023-01-29T01:09:45;10.82;;;9.82;;
9330;SDS011;4704;50.470;12.072;2023-01-29T01:12:31;10.00;;;9.00;;
9330;SDS011;4704;50.470;12.072;2023-01-29T01:15:00;10.52;;;9.57;;
9330;SDS011;4704;50.470;12.072;2023-01-29T01:17:27;10.50;;;9.45;;
9330;SDS011;4704;50.470;12.072;2023-01-29T01:19:55;9.57;;;8.68;;
9330;SDS011;4704;50.470;12.072;2023-01-29T01:22:23;9.85;;;8.90;;
9330;SDS011;4704;50.470;12.072;2023-01-29T01:24:50;9.77;;;8.88;;
9330;SDS011;4704;50.470;12.072;2023-01-29T01:27:18;10.43;;;9.32;;
9330;SDS011;4704;50.470;12.072;2023-01-29T01:29:48;9.35;;;8.45;;
9330;SDS011;4704;50.470;12.072;2023-01-29T01:32:16;9.55;;;8.65;;
9330;SDS011;4704;50.470;12.072;2023-01-29T01:34:43;9.15;;;8.25;;
9330;SDS011;4704;50.470;12.072;2023-01-29T01:37:11;9.02;;;8.23;;
9330;SDS011;4704;50.470;12.072;2023-01-29T01:39:39;8.77;;;7.88;;
9330;SDS011;4704;50.470;12.072;2023-01-29T01:42:10;8.35;;;7.65;;
9330;SDS011;4704;50.470;12.072;2023-01-29T01:44:56;8.40;;;7.60;;
9330;SDS011;4704;50.470;12.072;2023-01-29T01:47:29;8.10;;;7.30;;
9330;SDS011;4704;50.470;12.072;2023-01-29T01:49:58;8.80;;;8.00;;
9330;SDS011;4704;50.470;12.072;2023-01-29T01:52:29;8.95;;;8.05;;
9330;SDS011;4704;50.470;12.072;2023-01-29T01:54:57;7.85;;;7.13;;
9330;SDS011;4704;50.470;12.072;2023-01-29T01:57:26;8.23;;;7.43;;
9330;SDS011;4704;50.470;12.072;2023-01-29T01:59:56;7.60;;;6.90;;
9330;SDS011;4704;50.470;12.072;2023-01-29T02:02:28;7.30;;;6.60;;
9330;SDS011;4704;50.470;12.072;2023-01-29T02:05:13;7.93;;;7.22;;
9330;SDS011;4704;50.470;12.072;2023-01-29T02:07:58;7.72;;;7.05;;
9330;SDS011;4704;50.470;12.072;2023-01-29T02:10:44;7.22;;;6.63;;
9330;SDS011;4704;50.470;12.072;2023-01-29T02:13:13;6.68;;;6.07;;
9330;SDS011;4704;50.470;12.072;2023-01-29T02:15:44;6.70;;;6.10;;
9330;SDS011;4704;50.470;12.072;2023-01-29T02:18:13;6.88;;;6.28;;
9330;SDS011;4704;50.470;12.072;2023-01-29T02:20:43;7.68;;;6.97;;
9330;SDS011;4704;50.470;12.072;2023-01-29T02:26:06;6.43;;;5.85;;
9330;SDS011;4704;50.470;12.072;2023-01-29T02:28:40;6.60;;;6.00;;
9330;SDS011;4704;50.470;12.072;2023-01-29T02:31:15;6.50;;;5.90;;
9330;SDS011;4704;50.470;12.072;2023-01-29T02:33:47;6.38;;;5.78;;
9330;SDS011;4704;50.470;12.072;2023-01-29T02:36:19;6.28;;;5.72;;
9330;SDS011;4704;50.470;12.072;2023-01-29T02:38:49;5.90;;;5.38;;
9330;SDS011;4704;50.470;12.072;2023-01-29T02:41:23;6.07;;;5.57;;
9330;SDS011;4704;50.470;12.072;2023-01-29T02:43:55;5.57;;;5.07;;
9330;SDS011;4704;50.470;12.072;2023-01-29T02:46:26;5.72;;;5.22;;
9330;SDS011;4704;50.470;12.072;2023-01-29T02:48:57;5.68;;;5.20;;
9330;SDS011;4704;50.470;12.072;2023-01-29T02:51:29;6.00;;;5.50;;
9330;SDS011;4704;50.470;12.072;2023-01-29T02:54:01;6.10;;;5.50;;
9330;SDS011;4704;50.470;12.072;2023-01-29T02:56:32;5.43;;;4.93;;
9330;SDS011;4704;50.470;12.072;2023-01-29T02:59:03;5.70;;;5.20;;
9330;SDS011;4704;50.470;12.072;2023-01-29T03:01:35;5.30;;;4.90;;
9330;SDS011;4704;50.470;12.072;2023-01-29T03:04:06;5.57;;;5.07;;
9330;SDS011;4704;50.470;12.072;2023-01-29T03:06:36;5.10;;;4.70;;
9330;SDS011;4704;50.470;12.072;2023-01-29T03:09:06;5.10;;;4.70;;
9330;SDS011;4704;50.470;12.072;2023-01-29T03:11:37;5.18;;;4.78;;
9330;SDS011;4704;50.470;12.072;2023-01-29T03:14:10;5.00;;;4.60;;
9330;SDS011;4704;50.470;12.072;2023-01-29T03:16:39;5.10;;;4.70;;
9330;SDS011;4704;50.470;12.072;2023-01-29T03:19:08;4.88;;;4.47;;
9330;SDS011;4704;50.470;12.072;2023-01-29T03:21:38;5.18;;;4.78;;
9330;SDS011;4704;50.470;12.072;2023-01-29T03:24:18;4.55;;;4.15;;
9330;SDS011;4704;50.470;12.072;2023-01-29T03:27:06;4.72;;;4.32;;
9330;SDS011;4704;50.470;12.072;2023-01-29T03:29:53;4.50;;;4.20;;
9330;SDS011;4704;50.470;12.072;2023-01-29T03:32:39;4.90;;;4.50;;
9330;SDS011;4704;50.470;12.072;2023-01-29T03:35:08;4.38;;;4.07;;
9330;SDS011;4704;50.470;12.072;2023-01-29T03:37:37;4.57;;;4.18;;
9330;SDS011;4704;50.470;12.072;2023-01-29T03:40:07;4.70;;;4.32;;
9330;SDS011;4704;50.470;12.072;2023-01-29T03:42:38;4.70;;;4.30;;
9330;SDS011;4704;50.470;12.072;2023-01-29T03:45:10;4.15;;;3.85;;
9330;SDS011;4704;50.470;12.072;2023-01-29T03:47:41;4.10;;;3.80;;
9330;SDS011;4704;50.470;12.072;2023-01-29T03:50:11;4.50;;;4.10;;
9330;SDS011;4704;50.470;12.072;2023-01-29T03:52:43;4.30;;;3.92;;
9330;SDS011;4704;50.470;12.072;2023-01-29T03:55:12;3.97;;;3.67;;
9330;SDS011;4704;50.470;12.072;2023-01-29T03:57:43;4.03;;;3.72;;
9330;SDS011;4704;50.470;12.072;2023-01-29T04:00:15;4.20;;;3.90;;
9330;SDS011;4704;50.470;12.072;2023-01-29T04:02:46;4.13;;;3.75;;
9330;SDS011;4704;50.470;12.072;2023-01-29T04:05:18;4.00;;;3.70;;
9330;SDS011;4704;50.470;12.072;2023-01-29T04:07:47;3.90;;;3.60;;
9330;SDS011;4704;50.470;12.072;2023-01-29T04:10:20;4.10;;;3.80;;
9330;SDS011;4704;50.470;12.072;2023-01-29T04:12:49;3.90;;;3.60;;
9330;SDS011;4704;50.470;12.072;2023-01-29T04:15:19;3.90;;;3.60;;
9330;SDS011;4704;50.470;12.072;2023-01-29T04:17:49;3.80;;;3.50;;
9330;SDS011;4704;50.470;12.072;2023-01-29T04:20:17;3.90;;;3.60;;
9330;SDS011;4704;50.470;12.072;2023-01-29T04:22:46;3.70;;;3.40;;
9330;SDS011;4704;50.470;12.072;2023-01-29T04:25:15;3.60;;;3.30;;
9330;SDS011;4704;50.470;12.072;2023-01-29T04:27:44;3.78;;;3.58;;
9330;SDS011;4704;50.470;12.072;2023-01-29T04:30:20;4.03;;;3.72;;
9330;SDS011;4704;50.470;12.072;2023-01-29T04:32:55;3.90;;;3.60;;
9330;SDS011;4704;50.470;12.072;2023-01-29T04:35:26;4.00;;;3.70;;
9330;SDS011;4704;50.470;12.072;2023-01-29T04:37:58;3.35;;;3.10;;
9330;SDS011;4704;50.470;12.072;2023-01-29T04:40:28;3.67;;;3.38;;
9330;SDS011;4704;50.470;12.072;2023-01-29T04:43:00;3.20;;;3.00;;
9330;SDS011;4704;50.470;12.072;2023-01-29T04:45:34;3.88;;;3.58;;
9330;SDS011;4704;50.470;12.072;2023-01-29T04:48:07;3.70;;;3.40;;
9330;SDS011;4704;50.470;12.072;2023-01-29T04:50:47;3.70;;;3.40;;
9330;SDS011;4704;50.470;12.072;2023-01-29T04:53:21;4.05;;;3.75;;
9330;SDS011;4704;50.470;12.072;2023-01-29T04:55:50;3.35;;;3.15;;
9330;SDS011;4704;50.470;12.072;2023-01-29T04:58:22;3.38;;;3.17;;
9330;SDS011;4704;50.470;12.072;2023-01-29T05:00:53;3.88;;;3.58;;
9330;SDS011;4704;50.470;12.072;2023-01-29T05:03:22;3.38;;;3.17;;
9330;SDS011;4704;50.470;12.072;2023-01-29T05:05:50;3.10;;;2.90;;
9330;SDS011;4704;50.470;12.072;2023-01-29T05:08:20;3.60;;;3.40;;
9330;SDS011;4704;50.470;12.072;2023-01-29T05:10:49;3.53;;;3.33;;
9330;SDS011;4704;50.470;12.072;2023-01-29T05:13:18;3.30;;;3.10;;
9330;SDS011;4704;50.470;12.072;2023-01-29T05:15:47;3.47;;;3.25;;
9330;SDS011;4704;50.470;12.072;2023-01-29T05:18:17;3.70;;;3.40;;
9330;SDS011;4704;50.470;12.072;2023-01-29T05:20:44;3.70;;;3.40;;
9330;SDS011;4704;50.470;12.072;2023-01-29T05:23:14;3.50;;;3.30;;
9330;SDS011;4704;50.470;12.072;2023-01-29T05:25:42;3.90;;;3.60;;
9330;SDS011;4704;50.470;12.072;2023-01-29T05:28:10;3.30;;;3.10;;
9330;SDS011;4704;50.470;12.072;2023-01-29T05:30:41;3.83;;;3.53;;
9330;SDS011;4704;50.470;12.072;2023-01-29T05:33:10;3.33;;;3.13;;
9330;SDS011;4704;50.470;12.072;2023-01-29T05:35:39;3.63;;;3.38;;
9330;SDS011;4704;50.470;12.072;2023-01-29T05:38:07;3.70;;;3.40;;
9330;SDS011;4704;50.470;12.072;2023-01-29T05:40:34;3.60;;;3.30;;
9330;SDS011;4704;50.470;12.072;2023-01-29T05:43:02;3.80;;;3.50;;
9330;SDS011;4704;50.470;12.072;2023-01-29T05:45:30;3.72;;;3.38;;
9330;SDS011;4704;50.470;12.072;2023-01-29T05:47:57;3.63;;;3.42;;
9330;SDS011;4704;50.470;12.072;2023-01-29T05:50:25;3.92;;;3.63;;
9330;SDS011;4704;50.470;12.072;2023-01-29T05:52:57;3.67;;;3.38;;
9330;SDS011;4704;50.470;12.072;2023-01-29T05:55:25;3.67;;;3.38;;
9330;SDS011;4704;50.470;12.072;2023-01-29T05:57:53;3.78;;;3.47;;
9330;SDS011;4704;50.470;12.072;2023-01-29T06:00:21;3.85;;;3.55;;
9330;SDS011;4704;50.470;12.072;2023-01-29T06:02:48;3.60;;;3.40;;
9330;SDS011;4704;50.470;12.072;2023-01-29T06:05:16;4.10;;;3.80;;
9330;SDS011;4704;50.470;12.072;2023-01-29T06:07:43;3.58;;;3.28;;
9330;SDS011;4704;50.470;12.072;2023-01-29T06:10:13;3.85;;;3.55;;
9330;SDS011;4704;50.470;12.072;2023-01-29T06:12:41;3.38;;;3.17;;
9330;SDS011;4704;50.470;12.072;2023-01-29T06:15:09;3.80;;;3.50;;
9330;SDS011;4704;50.470;12.072;2023-01-29T06:17:37;3.90;;;3.60;;
9330;SDS011;4704;50.470;12.072;2023-01-29T06:20:05;3.90;;;3.60;;
9330;SDS011;4704;50.470;12.072;2023-01-29T06:22:32;3.70;;;3.40;;
9330;SDS011;4704;50.470;12.072;2023-01-29T06:25:00;3.22;;;3.03;;
9330;SDS011;4704;50.470;12.072;2023-01-29T06:27:29;3.50;;;3.20;;
9330;SDS011;4704;50.470;12.072;2023-01-29T06:29:56;4.00;;;3.70;;
9330;SDS011;4704;50.470;12.072;2023-01-29T06:32:24;3.97;;;3.67;;
9330;SDS011;4704;50.470;12.072;2023-01-29T06:34:51;3.85;;;3.55;;
9330;SDS011;4704;50.470;12.072;2023-01-29T06:37:18;3.70;;;3.40;;
9330;SDS011;4704;50.470;12.072;2023-01-29T06:39:46;3.40;;;3.20;;
9330;SDS011;4704;50.470;12.072;2023-01-29T06:42:14;3.70;;;3.50;;
9330;SDS011;4704;50.470;12.072;2023-01-29T06:44:42;3.53;;;3.30;;
9330;SDS011;4704;50.470;12.072;2023-01-29T06:47:10;3.53;;;3.33;;
9330;SDS011;4704;50.470;12.072;2023-01-29T06:49:37;3.60;;;3.40;;
9330;SDS011;4704;50.470;12.072;2023-01-29T06:52:05;4.00;;;3.70;;
9330;SDS011;4704;50.470;12.072;2023-01-29T06:54:32;3.80;;;3.50;;
9330;SDS011;4704;50.470;12.072;2023-01-29T06:57:00;3.50;;;3.30;;
9330;SDS011;4704;50.470;12.072;2023-01-29T06:59:27;3.42;;;3.22;;
9330;SDS011;4704;50.470;12.072;2023-01-29T07:01:56;3.50;;;3.25;;
9330;SDS011;4704;50.470;12.072;2023-01-29T07:04:23;3.85;;;3.55;;
9330;SDS011;4704;50.470;12.072;2023-01-29T07:06:51;3.33;;;3.13;;
9330;SDS011;4704;50.470;12.072;2023-01-29T07:09:19;3.55;;;3.28;;
9330;SDS011;4704;50.470;12.072;2023-01-29T07:11:46;3.55;;;3.25;;
9330;SDS011;4704;50.470;12.072;2023-01-29T07:14:13;3.47;;;3.28;;
9330;SDS011;4704;50.470;12.072;2023-01-29T07:16:41;3.35;;;3.15;;
9330;SDS011;4704;50.470;12.072;2023-01-29T07:19:10;3.30;;;3.10;;
9330;SDS011;4704;50.470;12.072;2023-01-29T07:21:37;3.30;;;3.10;;
9330;SDS011;4704;50.470;12.072;2023-01-29T07:24:05;3.28;;;3.08;;
9330;SDS011;4704;50.470;12.072;2023-01-29T07:26:32;3.60;;;3.30;;
9330;SDS011;4704;50.470;12.072;2023-01-29T07:29:00;3.40;;;3.20;;
9330;SDS011;4704;50.470;12.072;2023-01-29T07:31:27;3.40;;;3.20;;
9330;SDS011;4704;50.470;12.072;2023-01-29T07:33:54;3.30;;;3.10;;
9330;SDS011;4704;50.470;12.072;2023-01-29T07:36:24;3.30;;;3.05;;
9330;SDS011;4704;50.470;12.072;2023-01-29T07:38:51;3.33;;;3.13;;
9330;SDS011;4704;50.470;12.072;2023-01-29T07:41:18;3.20;;;3.00;;
9330;SDS011;4704;50.470;12.072;2023-01-29T07:43:46;3.85;;;3.55;;
9330;SDS011;4704;50.470;12.072;2023-01-29T07:46:13;3.40;;;3.20;;
9330;SDS011;4704;50.470;12.072;2023-01-29T07:48:40;3.20;;;3.00;;
9330;SDS011;4704;50.470;12.072;2023-01-29T07:51:08;3.40;;;3.20;;
9330;SDS011;4704;50.470;12.072;2023-01-29T07:53:37;3.60;;;3.30;;
9330;SDS011;4704;50.470;12.072;2023-01-29T07:56:04;3.15;;;2.95;;
9330;SDS011;4704;50.470;12.072;2023-01-29T07:58:32;3.65;;;3.38;;
9330;SDS011;4704;50.470;12.072;2023-01-29T08:00:59;3.35;;;3.15;;
9330;SDS011;4704;50.470;12.072;2023-01-29T08:03:31;3.53;;;3.30;;
9330;SDS011;4704;50.470;12.072;2023-01-29T08:05:58;3.60;;;3.30;;
9330;SDS011;4704;50.470;12.072;2023-01-29T08:08:25;3.28;;;3.08;;
9330;SDS011;4704;50.470;12.072;2023-01-29T08:10:54;3.10;;;2.90;;
9330;SDS011;4704;50.470;12.072;2023-01-29T08:13:22;3.65;;;3.35;;
9330;SDS011;4704;50.470;12.072;2023-01-29T08:15:49;3.60;;;3.40;;
9330;SDS011;4704;50.470;12.072;2023-01-29T08:18:17;3.78;;;3.47;;
9330;SDS011;4704;50.470;12.072;2023-01-29T08:20:44;3.50;;;3.30;;
9330;SDS011;4704;50.470;12.072;2023-01-29T08:23:12;3.20;;;3.00;;
9330;SDS011;4704;50.470;12.072;2023-01-29T08:25:40;3.72;;;3.42;;
9330;SDS011;4704;50.470;12.072;2023-01-29T08:28:09;3.45;;;3.25;;
9330;SDS011;4704;50.470;12.072;2023-01-29T08:30:36;3.75;;;3.45;;
9330;SDS011;4704;50.470;12.072;2023-01-29T08:33:04;4.70;;;3.50;;
9330;SDS011;4704;50.470;12.072;2023-01-29T08:35:32;3.50;;;3.20;;
9330;SDS011;4704;50.470;12.072;2023-01-29T08:38:00;3.65;;;3.35;;
9330;SDS011;4704;50.470;12.072;2023-01-29T08:40:28;3.70;;;3.40;;
9330;SDS011;4704;50.470;12.072;2023-01-29T08:42:56;4.65;;;4.25;;
9330;SDS011;4704;50.470;12.072;2023-01-29T08:45:26;4.05;;;3.60;;
9330;SDS011;4704;50.470;12.072;2023-01-29T08:47:54;3.78;;;3.47;;
9330;SDS011;4704;50.470;12.072;2023-01-29T08:50:21;5.00;;;4.00;;
9330;SDS011;4704;50.470;12.072;2023-01-29T08:52:48;4.60;;;4.20;;
9330;SDS011;4704;50.470;12.072;2023-01-29T08:55:16;4.13;;;3.83;;
9330;SDS011;4704;50.470;12.072;2023-01-29T08:57:43;4.55;;;4.18;;
9330;SDS011;4704;50.470;12.072;2023-01-29T09:00:11;5.03;;;4.63;;
9330;SDS011;4704;50.470;12.072;2023-01-29T09:02:40;4.88;;;4.47;;
9330;SDS011;4704;50.470;12.072;2023-01-29T09:05:08;4.60;;;4.20;;
9330;SDS011;4704;50.470;12.072;2023-01-29T09:07:35;4.93;;;4.50;;
9330;SDS011;4704;50.470;12.072;2023-01-29T09:10:03;4.88;;;4.47;;
9330;SDS011;4704;50.470;12.072;2023-01-29T09:12:30;6.57;;;5.90;;
9330;SDS011;4704;50.470;12.072;2023-01-29T09:14:58;19.63;;;18.13;;
9330;SDS011;4704;50.470;12.072;2023-01-29T09:17:25;18.55;;;17.15;;
9330;SDS011;4704;50.470;12.072;2023-01-29T09:19:54;18.58;;;17.05;;
9330;SDS011;4704;50.470;12.072;2023-01-29T09:22:22;15.88;;;14.63;;
9330;SDS011;4704;50.470;12.072;2023-01-29T09:24:50;15.52;;;14.32;;
9330;SDS011;4704;50.470;12.072;2023-01-29T09:27:17;14.73;;;13.40;;
9330;SDS011;4704;50.470;12.072;2023-01-29T09:29:45;14.45;;;13.25;;
9330;SDS011;4704;50.470;12.072;2023-01-29T09:32:12;13.85;;;12.60;;
9330;SDS011;4704;50.470;12.072;2023-01-29T09:34:39;13.32;;;12.13;;
9330;SDS011;4704;50.470;12.072;2023-01-29T09:37:08;12.90;;;11.70;;
9330;SDS011;4704;50.470;12.072;2023-01-29T09:39:36;13.05;;;11.65;;
9330;SDS011;4704;50.470;12.072;2023-01-29T09:42:05;11.85;;;10.73;;
9330;SDS011;4704;50.470;12.072;2023-01-29T09:44:45;11.60;;;10.70;;
9330;SDS011;4704;50.470;12.072;2023-01-29T09:47:13;11.23;;;10.25;;
9330;SDS011;4704;50.470;12.072;2023-01-29T09:49:41;11.35;;;10.55;;
9330;SDS011;4704;50.470;12.072;2023-01-29T09:52:12;11.38;;;10.40;;
9330;SDS011;4704;50.470;12.072;2023-01-29T09:54:45;10.57;;;9.70;;
9330;SDS011;4704;50.470;12.072;2023-01-29T09:57:17;10.57;;;9.80;;
9330;SDS011;4704;50.470;12.072;2023-01-29T09:59:45;9.02;;;8.30;;
9330;SDS011;4704;50.470;12.072;2023-01-29T10:02:17;9.52;;;8.63;;
9330;SDS011;4704;50.470;12.072;2023-01-29T10:04:57;8.57;;;7.95;;
9330;SDS011;4704;50.470;12.072;2023-01-29T10:10:24;8.25;;;7.65;;
9330;SDS011;4704;50.470;12.072;2023-01-29T10:12:59;8.48;;;7.88;;
9330;SDS011;4704;50.470;12.072;2023-01-29T10:15:34;7.75;;;7.15;;
9330;SDS011;4704;50.470;12.072;2023-01-29T10:18:16;7.68;;;7.07;;
9330;SDS011;4704;50.470;12.072;2023-01-29T10:20:51;7.90;;;7.20;;
9330;SDS011;4704;50.470;12.072;2023-01-29T10:23:22;7.78;;;7.07;;
9330;SDS011;4704;50.470;12.072;2023-01-29T10:25:51;6.82;;;6.32;;
9330;SDS011;4704;50.470;12.072;2023-01-29T10:28:20;6.80;;;6.30;;
9330;SDS011;4704;50.470;12.072;2023-01-29T10:30:49;6.20;;;5.70;;
9330;SDS011;4704;50.470;12.072;2023-01-29T10:33:17;6.57;;;5.97;;
9330;SDS011;4704;50.470;12.072;2023-01-29T10:35:46;6.25;;;5.65;;
9330;SDS011;4704;50.470;12.072;2023-01-29T10:41:11;50.13;;;39.80;;
9330;SDS011;4704;50.470;12.072;2023-01-29T10:43:46;42.50;;;35.55;;
9330;SDS011;4704;50.470;12.072;2023-01-29T10:46:19;41.55;;;34.47;;
9330;SDS011;4704;50.470;12.072;2023-01-29T10:48:54;40.33;;;32.55;;
9330;SDS011;4704;50.470;12.072;2023-01-29T10:51:43;34.95;;;30.33;;
9330;SDS011;4704;50.470;12.072;2023-01-29T10:54:18;33.95;;;29.52;;
9330;SDS011;4704;50.470;12.072;2023-01-29T10:56:56;35.15;;;28.10;;
9330;SDS011;4704;50.470;12.072;2023-01-29T10:59:33;34.30;;;26.73;;
9330;SDS011;4704;50.470;12.072;2023-01-29T11:02:01;29.85;;;25.48;;
9330;SDS011;4704;50.470;12.072;2023-01-29T11:04:29;30.10;;;24.70;;
9330;SDS011;4704;50.470;12.072;2023-01-29T11:06:58;30.10;;;24.00;;
9330;SDS011;4704;50.470;12.072;2023-01-29T11:09:27;28.20;;;22.02;;
9330;SDS011;4704;50.470;12.072;2023-01-29T11:11:58;26.02;;;21.50;;
9330;SDS011;4704;50.470;12.072;2023-01-29T11:14:27;25.85;;;21.35;;
9330;SDS011;4704;50.470;12.072;2023-01-29T11:16:56;21.70;;;19.38;;
9330;SDS011;4704;50.470;12.072;2023-01-29T11:19:34;22.33;;;19.80;;
9330;SDS011;4704;50.470;12.072;2023-01-29T11:22:02;22.88;;;17.70;;
9330;SDS011;4704;50.470;12.072;2023-01-29T11:24:33;20.45;;;18.20;;
9330;SDS011;4704;50.470;12.072;2023-01-29T11:27:02;20.98;;;18.15;;
9330;SDS011;4704;50.470;12.072;2023-01-29T11:29:40;21.15;;;17.42;;
9330;SDS011;4704;50.470;12.072;2023-01-29T11:32:11;19.27;;;16.55;;
9330;SDS011;4704;50.470;12.072;2023-01-29T11:34:55;16.95;;;15.15;;
9330;SDS011;4704;50.470;12.072;2023-01-29T11:37:22;16.35;;;14.65;;
9330;SDS011;4704;50.470;12.072;2023-01-29T11:39:57;16.40;;;14.70;;
9330;SDS011;4704;50.470;12.072;2023-01-29T11:42:26;16.65;;;14.07;;
9330;SDS011;4704;50.470;12.072;2023-01-29T11:44:56;15.30;;;13.77;;
9330;SDS011;4704;50.470;12.072;2023-01-29T11:47:25;13.93;;;12.20;;
9330;SDS011;4704;50.470;12.072;2023-01-29T11:49:53;14.65;;;12.60;;
9330;SDS011;4704;50.470;12.072;2023-01-29T11:52:22;13.30;;;11.90;;
9330;SDS011;4704;50.470;12.072;2023-01-29T11:54:51;12.65;;;11.35;;
9330;SDS011;4704;50.470;12.072;2023-01-29T11:57:27;12.35;;;11.15;;
9330;SDS011;4704;50.470;12.072;2023-01-29T11:59:57;12.95;;;11.00;;
9330;SDS011;4704;50.470;12.072;2023-01-29T12:02:27;13.88;;;11.30;;
9330;SDS011;4704;50.470;12.072;2023-01-29T12:04:56;126.43;;;114.55;;
9330;SDS011;4704;50.470;12.072;2023-01-29T12:07:26;103.03;;;93.45;;
9330;SDS011;4704;50.470;12.072;2023-01-29T12:09:55;75.72;;;68.22;;
9330;SDS011;4704;50.470;12.072;2023-01-29T12:12:29;70.85;;;64.07;;
9330;SDS011;4704;50.470;12.072;2023-01-29T12:15:16;67.45;;;60.97;;
9330;SDS011;4704;50.470;12.072;2023-01-29T12:17:47;64.25;;;57.90;;
9330;SDS011;4704;50.470;12.072;2023-01-29T12:20:17;61.95;;;56.15;;
9330;SDS011;4704;50.470;12.072;2023-01-29T12:22:46;60.15;;;54.53;;
9330;SDS011;4704;50.470;12.072;2023-01-29T12:25:17;57.58;;;52.17;;
9330;SDS011;4704;50.470;12.072;2023-01-29T12:27:48;56.55;;;51.13;;
9330;SDS011;4704;50.470;12.072;2023-01-29T12:30:20;55.33;;;50.13;;
9330;SDS011;4704;50.470;12.072;2023-01-29T12:32:48;54.33;;;49.33;;
9330;SDS011;4704;50.470;12.072;2023-01-29T12:35:20;54.20;;;49.38;;
9330;SDS011;4704;50.470;12.072;2023-01-29T12:37:50;51.58;;;46.83;;
9330;SDS011;4704;50.470;12.072;2023-01-29T12:40:20;49.10;;;44.63;;
9330;SDS011;4704;50.470;12.072;2023-01-29T12:42:54;47.70;;;43.47;;
9330;SDS011;4704;50.470;12.072;2023-01-29T12:45:23;46.78;;;42.50;;
9330;SDS011;4704;50.470;12.072;2023-01-29T12:47:51;44.53;;;40.47;;
9330;SDS011;4704;50.470;12.072;2023-01-29T12:50:21;43.85;;;39.95;;
9330;SDS011;4704;50.470;12.072;2023-01-29T12:52:50;42.42;;;38.72;;
9330;SDS011;4704;50.470;12.072;2023-01-29T12:55:19;39.83;;;36.42;;
9330;SDS011;4704;50.470;12.072;2023-01-29T12:57:49;37.15;;;33.95;;
9330;SDS011;4704;50.470;12.072;2023-01-29T13:00:23;35.17;;;32.10;;
9330;SDS011;4704;50.470;12.072;2023-01-29T13:02:53;34.78;;;31.70;;
9330;SDS011;4704;50.470;12.072;2023-01-29T13:05:22;32.50;;;29.67;;
9330;SDS011;4704;50.470;12.072;2023-01-29T13:07:52;30.52;;;27.90;;
9330;SDS011;4704;50.470;12.072;2023-01-29T13:10:23;29.65;;;27.02;;
9330;SDS011;4704;50.470;12.072;2023-01-29T13:12:53;26.80;;;24.50;;
9330;SDS011;4704;50.470;12.072;2023-01-29T13:15:23;26.85;;;24.55;;
9330;SDS011;4704;50.470;12.072;2023-01-29T13:17:53;24.55;;;22.50;;
9330;SDS011;4704;50.470;12.072;2023-01-29T13:20:23;25.17;;;23.08;;
9330;SDS011;4704;50.470;12.072;2023-01-29T13:22:53;22.05;;;20.17;;
9330;SDS011;4704;50.470;12.072;2023-01-29T13:25:22;21.63;;;19.73;;
9330;SDS011;4704;50.470;12.072;2023-01-29T13:27:49;20.42;;;18.73;;
9330;SDS011;4704;50.470;12.072;2023-01-29T13:30:26;19.30;;;17.60;;
9330;SDS011;4704;50.470;12.072;2023-01-29T13:32:54;19.35;;;17.75;;
9330;SDS011;4704;50.470;12.072;2023-01-29T13:35:33;18.15;;;16.45;;
9330;SDS011;4704;50.470;12.072;2023-01-29T13:38:01;31.00;;;27.85;;
9330;SDS011;4704;50.470;12.072;2023-01-29T13:40:29;29.83;;;26.92;;
9330;SDS011;4704;50.470;12.072;2023-01-29T13:42:58;26.40;;;23.95;;
9330;SDS011;4704;50.470;12.072;2023-01-29T13:45:29;25.35;;;22.88;;
9330;SDS011;4704;50.470;12.072;2023-01-29T13:48:07;23.48;;;21.30;;
9330;SDS011;4704;50.470;12.072;2023-01-29T13:50:35;21.90;;;19.80;;
9330;SDS011;4704;50.470;12.072;2023-01-29T13:53:03;22.77;;;20.70;;
9330;SDS011;4704;50.470;12.072;2023-01-29T13:55:32;21.25;;;19.35;;
9330;SDS011;4704;50.470;12.072;2023-01-29T13:58:01;20.15;;;18.35;;
9330;SDS011;4704;50.470;12.072;2023-01-29T14:09:18;18.58;;;16.98;;
9330;SDS011;4704;50.470;12.072;2023-01-29T14:11:54;17.00;;;15.50;;
9330;SDS011;4704;50.470;12.072;2023-01-29T14:17:07;16.15;;;14.65;;
9330;SDS011;4704;50.470;12.072;2023-01-29T14:19:34;15.02;;;13.75;;
9330;SDS011;4704;50.470;12.072;2023-01-29T14:22:02;15.23;;;13.82;;
9330;SDS011;4704;50.470;12.072;2023-01-29T14:24:32;15.00;;;13.60;;
9330;SDS011;4704;50.470;12.072;2023-01-29T14:27:00;13.82;;;12.63;;
9330;SDS011;4704;50.470;12.072;2023-01-29T14:29:27;13.55;;;12.35;;
9330;SDS011;4704;50.470;12.072;2023-01-29T14:31:57;12.88;;;11.77;;
9330;SDS011;4704;50.470;12.072;2023-01-29T14:34:26;13.02;;;11.93;;
9330;SDS011;4704;50.470;12.072;2023-01-29T14:36:54;12.63;;;11.43;;
9330;SDS011;4704;50.470;12.072;2023-01-29T14:39:31;12.30;;;11.20;;
9330;SDS011;4704;50.470;12.072;2023-01-29T14:42:01;11.55;;;10.55;;
9330;SDS011;4704;50.470;12.072;2023-01-29T14:47:16;11.30;;;10.32;;
9330;SDS011;4704;50.470;12.072;2023-01-29T14:49:47;11.00;;;10.00;;
9330;SDS011;4704;50.470;12.072;2023-01-29T14:52:15;10.50;;;9.50;;
9330;SDS011;4704;50.470;12.072;2023-01-29T14:54:43;9.63;;;8.70;;
9330;SDS011;4704;50.470;12.072;2023-01-29T14:57:14;9.93;;;9.07;;
9330;SDS011;4704;50.470;12.072;2023-01-29T14:59:44;10.30;;;9.30;;
9330;SDS011;4704;50.470;12.072;2023-01-29T15:02:17;9.25;;;8.45;;
9330;SDS011;4704;50.470;12.072;2023-01-29T15:04:46;8.68;;;7.88;;
9330;SDS011;4704;50.470;12.072;2023-01-29T15:07:18;8.73;;;7.93;;
9330;SDS011;4704;50.470;12.072;2023-01-29T15:09:47;9.55;;;7.57;;
9330;SDS011;4704;50.470;12.072;2023-01-29T15:12:19;7.82;;;7.13;;
9330;SDS011;4704;50.470;12.072;2023-01-29T15:14:51;7.90;;;7.22;;
9330;SDS011;4704;50.470;12.072;2023-01-29T15:17:24;7.53;;;6.90;;
9330;SDS011;4704;50.470;12.072;2023-01-29T15:19:54;7.13;;;6.43;;
9330;SDS011;4704;50.470;12.072;2023-01-29T15:22:23;6.95;;;6.28;;
9330;SDS011;4704;50.470;12.072;2023-01-29T15:25:03;6.95;;;6.35;;
9330;SDS011;4704;50.470;12.072;2023-01-29T15:27:33;6.80;;;6.20;;
9330;SDS011;4704;50.470;12.072;2023-01-29T15:30:01;6.60;;;6.00;;
9330;SDS011;4704;50.470;12.072;2023-01-29T15:32:30;6.85;;;6.22;;